Time;durP1;ratioP1;P1;durP2;ratioP2;P2;SDS_P1;SDS_P2;PMS_P1;PMS_P2;Temp;Humidity;BMP_temperature;BMP_pressure;BME280_temperature;BME280_humidity;BME280_pressure;Samples;Min_cycle;Max_cycle;Signal;HPM_P1;HPM_P2
2022/09/21 00:00:46;;;;;;;;;;;13.70;99.90;;;;;;5105606;28;19931;-58
2022/09/21 00:03:14;;;;;;;;;;;14.20;99.90;;;;;;5100190;28;19928;-58
2022/09/21 00:05:42;;;;;;;;;;;14.20;99.90;;;;;;5102565;28;19923;-57
2022/09/21 00:08:10;;;;;;;;;;;14.20;99.90;;;;;;5105706;28;19934;-58
2022/09/21 00:10:38;;;;;;;;;;;14.20;99.90;;;;;;5107085;28;19935;-59
2022/09/21 00:13:07;;;;;;;;;;;14.20;99.90;;;;;;5104885;28;19923;-59
2022/09/21 00:15:34;;;;;;;;;;;14.20;99.90;;;;;;5107942;27;19928;-58
2022/09/21 00:18:02;;;;;;;;;;;14.20;99.90;;;;;;5100810;28;19931;-58
2022/09/21 00:20:30;;;;;;;;;;;14.20;99.90;;;;;;5089564;28;19924;-59
2022/09/21 00:22:57;;;;;;;;;;;14.20;99.90;;;;;;5109278;28;19931;-58
2022/09/21 00:25:24;;;;;;;;;;;14.20;99.90;;;;;;5091053;28;19927;-59
2022/09/21 00:27:53;;;;;;;;;;;14.20;99.90;;;;;;5089459;28;19931;-61
2022/09/21 00:30:20;;;;;;;;;;;14.10;99.90;;;;;;5108245;28;19931;-61
2022/09/21 00:32:48;;;;;;;;;;;14.10;99.90;;;;;;5105231;28;19927;-59
2022/09/21 00:35:15;;;;;;;;;;;14.10;99.90;;;;;;5112355;27;19924;-61
2022/09/21 00:37:43;;;;;;;;;;;14.10;99.90;;;;;;5107865;28;19924;-60
2022/09/21 00:40:14;;;;;;;;;;;14.10;99.90;;;;;;5107624;28;19928;-60
2022/09/21 00:42:41;;;;;;;;;;;14.10;99.90;;;;;;5090786;28;19935;-60
2022/09/21 00:45:19;;;;;;;;;;;14.00;99.90;;;;;;5090339;28;20366;-61
2022/09/21 00:47:49;;;;;;;;;;;14.10;99.90;;;;;;5106674;28;19931;-60
2022/09/21 00:50:19;;;;;;;;;;;14.10;99.90;;;;;;5106726;28;20001;-60
2022/09/21 00:52:48;;;;;;;;;;;14.00;99.90;;;;;;5089736;28;20750;-60
2022/09/21 00:55:19;;;;;;;;;;;14.00;99.90;;;;;;5116324;27;19931;-60
2022/09/21 00:57:48;;;;;;;;;;;14.00;99.90;;;;;;5112365;27;20294;-58
2022/09/21 01:00:15;;;;;;;;;;;14.00;99.90;;;;;;5112365;27;19927;-60
2022/09/21 01:02:44;;;;;;;;;;;14.00;99.90;;;;;;5104250;28;20564;-60
2022/09/21 01:05:12;;;;;;;;;;;14.00;99.90;;;;;;5095586;28;19924;-59
2022/09/21 01:07:45;;;;;;;;;;;14.00;99.90;;;;;;5103708;28;19928;-60
2022/09/21 01:10:17;;;;;;;;;;;13.90;99.90;;;;;;5089123;28;19931;-60
2022/09/21 01:13:04;;;;;;;;;;;14.00;99.90;;;;;;5107984;28;20379;-59
2022/09/21 01:15:50;;;;;;;;;;;13.90;99.90;;;;;;5110724;27;20751;-59
2022/09/21 01:18:18;;;;;;;;;;;13.90;99.90;;;;;;5084870;28;20290;-61
2022/09/21 01:20:54;;;;;;;;;;;13.90;99.90;;;;;;5108174;28;19951;-60
2022/09/21 01:23:30;;;;;;;;;;;13.90;99.90;;;;;;5108157;28;19936;-59
2022/09/21 01:26:01;;;;;;;;;;;13.90;99.90;;;;;;5101822;28;19931;-59
2022/09/21 01:28:32;;;;;;;;;;;13.90;99.90;;;;;;5120281;27;19942;-60
2022/09/21 01:31:04;;;;;;;;;;;13.80;99.90;;;;;;5119230;27;20390;-60
2022/09/21 01:33:35;;;;;;;;;;;13.80;99.90;;;;;;5087012;28;19950;-60
2022/09/21 01:36:06;;;;;;;;;;;13.80;99.90;;;;;;5110131;28;20359;-60
2022/09/21 01:38:43;;;;;;;;;;;13.80;99.90;;;;;;5110705;28;19924;-61
2022/09/21 01:41:13;;;;;;;;;;;13.80;99.90;;;;;;5110896;28;19924;-60
2022/09/21 01:43:42;;;;;;;;;;;13.80;99.90;;;;;;5110330;28;19924;-61
2022/09/21 01:46:12;;;;;;;;;;;13.80;99.90;;;;;;5105801;28;19940;-59
2022/09/21 01:48:43;;;;;;;;;;;13.80;99.90;;;;;;5111037;28;19924;-60
2022/09/21 01:51:12;;;;;;;;;;;13.70;99.90;;;;;;5110599;28;19923;-60
2022/09/21 01:53:42;;;;;;;;;;;13.70;99.90;;;;;;5110388;28;19924;-60
2022/09/21 01:56:12;;;;;;;;;;;13.70;99.90;;;;;;5110494;28;19924;-58
2022/09/21 01:58:46;;;;;;;;;;;13.70;99.90;;;;;;5121521;28;20384;-57
2022/09/21 02:01:15;;;;;;;;;;;13.60;99.90;;;;;;5109986;28;19928;-57
2022/09/21 02:03:46;;;;;;;;;;;13.60;99.90;;;;;;5109607;28;19924;-57
2022/09/21 02:06:14;;;;;;;;;;;13.50;99.90;;;;;;5110892;28;20319;-57
2022/09/21 02:08:42;;;;;;;;;;;13.40;99.90;;;;;;5110977;28;19962;-57
2022/09/21 02:11:12;;;;;;;;;;;13.30;99.90;;;;;;5109667;28;19924;-57
2022/09/21 02:13:43;;;;;;;;;;;13.30;99.90;;;;;;5114571;28;19938;-57
2022/09/21 02:16:11;;;;;;;;;;;13.20;99.90;;;;;;5114654;28;19924;-59
2022/09/21 02:18:47;;;;;;;;;;;13.00;99.90;;;;;;5114611;28;19923;-60
2022/09/21 02:21:24;;;;;;;;;;;13.00;99.90;;;;;;5114087;28;19924;-60
2022/09/21 02:23:54;;;;;;;;;;;12.90;99.90;;;;;;5092457;28;19928;-61
2022/09/21 02:26:29;;;;;;;;;;;12.80;99.90;;;;;;5113678;28;19928;-57
2022/09/21 02:29:11;;;;;;;;;;;12.70;99.90;;;;;;5117659;27;20447;-60
2022/09/21 02:31:50;;;;;;;;;;;12.60;99.90;;;;;;5095796;28;19931;-60
2022/09/21 02:34:24;;;;;;;;;;;12.50;99.90;;;;;;5103764;28;19923;-60
2022/09/21 02:37:00;;;;;;;;;;;12.20;99.90;;;;;;5112772;28;19928;-61
2022/09/21 02:39:30;;;;;;;;;;;12.50;99.90;;;;;;5114238;28;19924;-59
2022/09/21 02:42:01;;;;;;;;;;;12.50;99.90;;;;;;5114121;28;20290;-60
2022/09/21 02:44:34;;;;;;;;;;;12.50;99.90;;;;;;5113024;28;19924;-58
2022/09/21 02:47:21;;;;;;;;;;;12.50;99.90;;;;;;5114076;28;19924;-58
2022/09/21 02:49:53;;;;;;;;;;;12.50;99.90;;;;;;5111411;28;20369;-58
2022/09/21 02:52:21;;;;;;;;;;;12.50;99.90;;;;;;5114035;28;19923;-60
2022/09/21 02:54:50;;;;;;;;;;;12.50;99.90;;;;;;5112281;28;19938;-57
2022/09/21 02:57:20;;;;;;;;;;;12.50;99.90;;;;;;5112546;28;19931;-60
2022/09/21 02:59:48;;;;;;;;;;;12.50;99.90;;;;;;5115134;28;19931;-59
2022/09/21 03:02:16;;;;;;;;;;;12.50;99.90;;;;;;5112515;28;20421;-58
2022/09/21 03:04:46;;;;;;;;;;;12.50;99.90;;;;;;5111627;28;19924;-57
2022/09/21 03:07:14;;;;;;;;;;;12.50;99.90;;;;;;5114043;28;19935;-61
2022/09/21 03:09:41;;;;;;;;;;;12.50;99.90;;;;;;5112162;28;19931;-60
2022/09/21 03:12:09;;;;;;;;;;;12.60;99.90;;;;;;5095964;28;19923;-60
2022/09/21 03:14:36;;;;;;;;;;;12.50;99.90;;;;;;5113960;28;19961;-59
2022/09/21 03:17:04;;;;;;;;;;;12.50;99.90;;;;;;5112962;28;19923;-59
2022/09/21 03:19:31;;;;;;;;;;;12.50;99.90;;;;;;5113538;28;19931;-60
2022/09/21 03:21:59;;;;;;;;;;;12.60;99.90;;;;;;5111168;28;19931;-58
2022/09/21 03:24:46;;;;;;;;;;;12.60;99.90;;;;;;5094217;28;20212;-60
2022/09/21 03:27:18;;;;;;;;;;;12.60;99.90;;;;;;5111538;27;19928;-59
2022/09/21 03:29:45;;;;;;;;;;;12.60;99.90;;;;;;5114649;28;19923;-59
2022/09/21 03:32:13;;;;;;;;;;;12.60;99.90;;;;;;5113634;28;19935;-60
2022/09/21 03:34:40;;;;;;;;;;;12.70;99.90;;;;;;5112568;28;19924;-61
2022/09/21 03:37:08;;;;;;;;;;;12.70;99.90;;;;;;5113360;28;19924;-59
2022/09/21 03:39:36;;;;;;;;;;;12.70;99.90;;;;;;5113302;28;19924;-61
2022/09/21 03:42:03;;;;;;;;;;;12.70;99.90;;;;;;5113517;28;19928;-59
2022/09/21 03:44:30;;;;;;;;;;;12.70;99.90;;;;;;5096095;28;19931;-59
2022/09/21 03:46:58;;;;;;;;;;;12.70;99.90;;;;;;5112479;28;19930;-61
2022/09/21 03:49:25;;;;;;;;;;;12.70;99.90;;;;;;5112564;28;19924;-58
2022/09/21 03:51:53;;;;;;;;;;;12.70;99.90;;;;;;5112380;28;19924;-60
2022/09/21 03:54:20;;;;;;;;;;;12.70;99.90;;;;;;5113122;28;19931;-58
2022/09/21 03:56:48;;;;;;;;;;;12.60;99.90;;;;;;5113097;28;20394;-60
2022/09/21 03:59:15;;;;;;;;;;;12.50;99.90;;;;;;5111943;28;19930;-60
2022/09/21 04:01:43;;;;;;;;;;;12.50;99.90;;;;;;5111894;28;20283;-61
2022/09/21 04:04:10;;;;;;;;;;;12.40;99.90;;;;;;5113153;28;19923;-60
2022/09/21 04:06:37;;;;;;;;;;;12.40;99.90;;;;;;5112607;28;19923;-60
2022/09/21 04:09:05;;;;;;;;;;;12.30;99.90;;;;;;5112255;28;19924;-59
2022/09/21 04:11:32;;;;;;;;;;;12.30;99.90;;;;;;5112257;28;19931;-59
2022/09/21 04:14:00;;;;;;;;;;;12.30;99.90;;;;;;5112714;28;19946;-60
2022/09/21 04:16:27;;;;;;;;;;;12.20;99.90;;;;;;5112711;28;19931;-59
2022/09/21 04:18:55;;;;;;;;;;;12.20;99.90;;;;;;5112382;28;20263;-60
2022/09/21 04:21:22;;;;;;;;;;;12.10;99.90;;;;;;5112445;28;19923;-60
2022/09/21 04:23:50;;;;;;;;;;;12.00;99.90;;;;;;5111485;28;19924;-59
2022/09/21 04:26:27;;;;;;;;;;;12.00;99.90;;;;;;5109954;28;19931;-58
2022/09/21 04:28:55;;;;;;;;;;;11.90;99.90;;;;;;5111758;27;19924;-60
2022/09/21 04:31:22;;;;;;;;;;;11.80;99.90;;;;;;5112315;28;19924;-59
2022/09/21 04:33:51;;;;;;;;;;;11.70;99.90;;;;;;5111251;28;19946;-58
2022/09/21 04:36:19;;;;;;;;;;;11.70;99.90;;;;;;5112700;28;20264;-58
2022/09/21 04:38:46;;;;;;;;;;;11.60;99.90;;;;;;5111632;28;19924;-58
2022/09/21 04:41:14;;;;;;;;;;;11.50;99.90;;;;;;5108762;28;19928;-58
2022/09/21 04:43:42;;;;;;;;;;;11.50;99.90;;;;;;5110105;28;19923;-57
2022/09/21 04:46:14;;;;;;;;;;;11.40;99.90;;;;;;5094291;28;19924;-57
2022/09/21 04:48:42;;;;;;;;;;;11.30;99.90;;;;;;5095827;28;19928;-58
2022/09/21 04:51:09;;;;;;;;;;;11.30;99.90;;;;;;5098573;28;20290;-59
2022/09/21 04:53:37;;;;;;;;;;;11.20;99.90;;;;;;5104607;28;19931;-60
2022/09/21 04:56:05;;;;;;;;;;;11.10;99.90;;;;;;5105350;28;20291;-60
2022/09/21 04:58:33;;;;;;;;;;;11.20;99.90;;;;;;5121275;27;19923;-59
2022/09/21 05:01:00;;;;;;;;;;;11.10;99.90;;;;;;5096323;28;19923;-60
2022/09/21 05:03:28;;;;;;;;;;;11.00;99.90;;;;;;5097441;28;20450;-59
2022/09/21 05:05:56;;;;;;;;;;;11.00;99.90;;;;;;5102302;28;19931;-59
2022/09/21 05:11:11;;;;;;;;;;;10.80;99.90;;;;;;5109660;28;19951;-58
2022/09/21 05:13:39;;;;;;;;;;;10.80;99.90;;;;;;5107807;28;19924;-59
2022/09/21 05:16:07;;;;;;;;;;;10.70;99.90;;;;;;5105032;28;19924;-59
2022/09/21 05:18:34;;;;;;;;;;;10.70;99.90;;;;;;5101937;28;19928;-60
2022/09/21 05:21:03;;;;;;;;;;;10.60;99.90;;;;;;5105388;28;19924;-60
2022/09/21 05:23:30;;;;;;;;;;;10.60;99.90;;;;;;5095951;28;19931;-59
2022/09/21 05:25:58;;;;;;;;;;;10.60;99.90;;;;;;5086357;28;19924;-60
2022/09/21 05:28:26;;;;;;;;;;;10.50;99.90;;;;;;5072606;28;19930;-58
2022/09/21 05:30:58;;;;;;;;;;;10.50;99.90;;;;;;5106885;28;19927;-60
2022/09/21 05:33:49;;;;;;;;;;;10.40;99.90;;;;;;5090596;28;19932;-60
2022/09/21 05:36:35;;;;;;;;;;;10.40;99.90;;;;;;5105195;28;19954;-58
2022/09/21 05:39:02;;;;;;;;;;;10.30;99.90;;;;;;5092253;28;20443;-58
2022/09/21 05:41:30;;;;;;;;;;;10.30;99.90;;;;;;5108136;28;19928;-59
2022/09/21 05:43:57;;;;;;;;;;;10.20;99.90;;;;;;5107837;28;19932;-60
2022/09/21 05:46:47;;;;;;;;;;;10.20;99.90;;;;;;5088384;28;19946;-60
2022/09/21 05:49:41;;;;;;;;;;;10.20;99.90;;;;;;5098802;28;19931;-61
2022/09/21 05:52:22;;;;;;;;;;;10.10;99.90;;;;;;5099221;28;19928;-60
2022/09/21 05:54:50;;;;;;;;;;;10.10;99.90;;;;;;5107745;28;20740;-58
2022/09/21 05:57:20;;;;;;;;;;;10.00;99.90;;;;;;5109995;28;20304;-57
2022/09/21 05:59:50;;;;;;;;;;;10.00;99.90;;;;;;5120964;28;19931;-57
2022/09/21 06:02:33;;;;;;;;;;;10.00;99.90;;;;;;5108328;28;19924;-59
2022/09/21 06:05:01;;;;;;;;;;;9.90;99.90;;;;;;5099838;28;20390;-59
2022/09/21 06:07:28;;;;;;;;;;;9.90;99.90;;;;;;5110673;28;19931;-58
2022/09/21 06:09:56;;;;;;;;;;;9.90;99.90;;;;;;5097675;28;20382;-60
2022/09/21 06:12:23;;;;;;;;;;;9.90;99.90;;;;;;5102836;28;19924;-60
2022/09/21 06:14:50;;;;;;;;;;;9.80;99.90;;;;;;5104183;28;19931;-59
2022/09/21 06:17:18;;;;;;;;;;;9.80;99.90;;;;;;5079561;28;19947;-58
2022/09/21 06:19:45;;;;;;;;;;;9.80;99.90;;;;;;5101901;28;20283;-59
2022/09/21 06:22:12;;;;;;;;;;;9.80;99.90;;;;;;5086732;28;19959;-60
2022/09/21 06:24:40;;;;;;;;;;;9.80;99.90;;;;;;5079987;28;19935;-59
2022/09/21 06:27:07;;;;;;;;;;;9.80;99.90;;;;;;5089611;28;19931;-60
2022/09/21 06:29:35;;;;;;;;;;;11.00;99.90;;;;;;5110381;28;19931;-59
2022/09/21 06:32:03;;;;;;;;;;;9.90;99.90;;;;;;5104205;28;19924;-59
2022/09/21 06:34:30;;;;;;;;;;;9.90;99.90;;;;;;5082006;28;20294;-58
2022/09/21 06:36:57;;;;;;;;;;;9.90;99.90;;;;;;5084616;28;19931;-60
2022/09/21 06:39:25;;;;;;;;;;;9.90;99.90;;;;;;5107818;28;19935;-59
2022/09/21 06:41:52;;;;;;;;;;;9.90;99.90;;;;;;5096231;28;19927;-58
2022/09/21 06:44:21;;;;;;;;;;;10.00;99.90;;;;;;5102246;28;19931;-57
2022/09/21 06:46:49;;;;;;;;;;;10.00;99.90;;;;;;5078853;28;19924;-60
2022/09/21 06:49:16;;;;;;;;;;;10.00;99.90;;;;;;5100241;28;19924;-60
2022/09/21 06:51:43;;;;;;;;;;;10.00;99.90;;;;;;5100204;28;19946;-59
2022/09/21 06:54:11;;;;;;;;;;;10.00;99.90;;;;;;5097756;28;19928;-59
2022/09/21 06:56:38;;;;;;;;;;;10.00;99.90;;;;;;5095543;28;19924;-57
2022/09/21 06:59:07;;;;;;;;;;;10.10;99.90;;;;;;5088951;28;19947;-58
2022/09/21 07:01:34;;;;;;;;;;;10.10;99.90;;;;;;5107165;28;19935;-58
2022/09/21 07:04:02;;;;;;;;;;;10.10;99.90;;;;;;5103275;28;20272;-57
2022/09/21 07:06:29;;;;;;;;;;;10.20;99.90;;;;;;5095351;28;19931;-58
2022/09/21 07:08:57;;;;;;;;;;;10.20;99.90;;;;;;5063342;28;20487;-57
2022/09/21 07:11:45;;;;;;;;;;;10.20;99.90;;;;;;5067035;28;19954;-58
2022/09/21 07:14:13;;;;;;;;;;;10.30;99.90;;;;;;5096321;28;20640;-57
2022/09/21 07:16:42;;;;;;;;;;;10.30;99.90;;;;;;5096289;28;19927;-58
2022/09/21 07:19:09;;;;;;;;;;;10.40;99.90;;;;;;5095575;28;19924;-57
2022/09/21 07:21:38;;;;;;;;;;;10.50;99.90;;;;;;5096703;28;19932;-58
2022/09/21 07:24:05;;;;;;;;;;;10.50;99.90;;;;;;5104561;27;20226;-59
2022/09/21 07:26:38;;;;;;;;;;;10.60;99.90;;;;;;5106882;28;19935;-59
2022/09/21 07:29:06;;;;;;;;;;;10.60;99.90;;;;;;5109401;27;19935;-60
2022/09/21 07:31:33;;;;;;;;;;;10.70;99.90;;;;;;5092431;28;19930;-58
2022/09/21 07:34:01;;;;;;;;;;;10.80;99.90;;;;;;5098888;28;19942;-59
2022/09/21 07:36:28;;;;;;;;;;;10.80;99.90;;;;;;5095368;28;20390;-57
2022/09/21 07:38:56;;;;;;;;;;;10.90;99.90;;;;;;5107814;27;20352;-60
2022/09/21 07:41:24;;;;;;;;;;;11.10;99.90;;;;;;5132137;27;19924;-57
2022/09/21 07:43:52;;;;;;;;;;;11.20;99.90;;;;;;5091763;28;19927;-57
2022/09/21 07:46:19;;;;;;;;;;;11.20;99.90;;;;;;5108637;28;20391;-57
2022/09/21 07:48:47;;;;;;;;;;;11.50;99.90;;;;;;5108704;28;20371;-59
2022/09/21 07:51:14;;;;;;;;;;;11.60;99.90;;;;;;5107680;28;20586;-58
2022/09/21 07:53:45;;;;;;;;;;;11.70;99.90;;;;;;5109205;28;19942;-59
2022/09/21 07:56:16;;;;;;;;;;;11.80;99.90;;;;;;5092885;28;19924;-60
2022/09/21 08:01:30;;;;;;;;;;;12.10;99.90;;;;;;5110389;28;20294;-57
2022/09/21 08:03:58;;;;;;;;;;;12.20;99.90;;;;;;5117770;27;20379;-57
2022/09/21 08:06:26;;;;;;;;;;;12.30;99.90;;;;;;5104887;28;19934;-58
2022/09/21 08:08:53;;;;;;;;;;;12.40;99.90;;;;;;5118596;27;19923;-57
2022/09/21 08:11:25;;;;;;;;;;;12.50;99.90;;;;;;5088937;28;19932;-58
2022/09/21 08:13:53;;;;;;;;;;;12.60;99.90;;;;;;5106960;27;20302;-58
2022/09/21 08:16:21;;;;;;;;;;;12.70;99.90;;;;;;5092554;28;20299;-60
2022/09/21 08:18:50;;;;;;;;;;;12.80;99.90;;;;;;5116205;27;19924;-59
2022/09/21 08:21:19;;;;;;;;;;;12.90;99.90;;;;;;5100458;28;19928;-60
2022/09/21 08:23:47;;;;;;;;;;;13.00;99.90;;;;;;5102410;28;19923;-59
2022/09/21 08:26:17;;;;;;;;;;;13.20;99.90;;;;;;5109419;28;19931;-60
2022/09/21 08:28:48;;;;;;;;;;;13.30;99.90;;;;;;5113809;27;20337;-57
2022/09/21 08:31:18;;;;;;;;;;;13.50;99.90;;;;;;5075014;28;19924;-58
2022/09/21 08:33:46;;;;;;;;;;;13.60;99.90;;;;;;5109940;28;19928;-59
2022/09/21 08:36:14;;;;;;;;;;;13.70;99.90;;;;;;5107165;28;19927;-59
2022/09/21 08:38:41;;;;;;;;;;;13.80;99.90;;;;;;5122542;27;19923;-58
2022/09/21 08:41:13;;;;;;;;;;;13.90;99.90;;;;;;5117979;27;19932;-59
2022/09/21 08:43:42;;;;;;;;;;;14.00;99.90;;;;;;5101394;28;19925;-60
2022/09/21 08:46:12;;;;;;;;;;;14.10;99.90;;;;;;5078543;28;19924;-59
2022/09/21 08:48:45;;;;;;;;;;;14.20;99.90;;;;;;5104676;28;20318;-60
2022/09/21 08:51:15;;;;;;;;;;;14.30;99.90;;;;;;5089733;28;20293;-60
2022/09/21 08:53:45;;;;;;;;;;;14.30;99.90;;;;;;5103819;28;19924;-60
2022/09/21 08:56:13;;;;;;;;;;;14.40;99.90;;;;;;5097053;28;19935;-59
2022/09/21 08:58:42;;;;;;;;;;;14.40;99.90;;;;;;5116850;27;20395;-58
2022/09/21 09:01:18;;;;;;;;;;;14.50;99.90;;;;;;5099721;28;19924;-60
2022/09/21 09:03:49;;;;;;;;;;;14.50;99.90;;;;;;5104852;28;19935;-58
2022/09/21 09:06:19;;;;;;;;;;;14.60;99.90;;;;;;5090496;28;19923;-58
2022/09/21 09:09:22;;;;;;;;;;;14.70;99.90;;;;;;5090375;28;20410;-59
2022/09/21 09:12:04;;;;;;;;;;;14.70;99.90;;;;;;5087035;28;20390;-59
2022/09/21 09:14:43;;;;;;;;;;;14.70;99.90;;;;;;5085786;28;19924;-60
2022/09/21 09:17:10;;;;;;;;;;;14.70;99.90;;;;;;5100591;28;19924;-59
2022/09/21 09:19:40;;;;;;;;;;;14.80;99.90;;;;;;5121527;27;20290;-57
2022/09/21 09:22:09;;;;;;;;;;;14.80;99.90;;;;;;5087419;28;20393;-61
2022/09/21 09:24:48;;;;;;;;;;;14.80;99.90;;;;;;5108044;28;19927;-62
2022/09/21 09:27:48;;;;;;;;;;;14.80;99.90;;;;;;5111517;27;19939;-58
2022/09/21 09:30:18;;;;;;;;;;;14.90;99.90;;;;;;5058748;28;19924;-60
2022/09/21 09:32:52;;;;;;;;;;;15.00;99.90;;;;;;5089175;28;20083;-57
2022/09/21 09:35:38;;;;;;;;;;;15.10;99.90;;;;;;5108229;28;19931;-57
2022/09/21 09:38:13;;;;;;;;;;;15.10;99.90;;;;;;5108848;28;19935;-57
2022/09/21 09:40:59;;;;;;;;;;;15.30;99.90;;;;;;5108383;28;20290;-57
2022/09/21 09:43:26;;;;;;;;;;;15.40;99.90;;;;;;5107677;28;19924;-57
2022/09/21 09:46:09;;;;;;;;;;;15.50;99.90;;;;;;5090608;28;19931;-57
2022/09/21 09:48:58;;;;;;;;;;;15.60;99.90;;;;;;5104317;28;20290;-57
2022/09/21 09:51:25;;;;;;;;;;;15.70;99.90;;;;;;5106710;28;19937;-58
2022/09/21 09:53:56;;;;;;;;;;;15.90;99.90;;;;;;5086134;28;19924;-59
2022/09/21 09:56:24;;;;;;;;;;;16.00;99.90;;;;;;5108679;28;20379;-61
2022/09/21 09:58:56;;;;;;;;;;;16.20;99.90;;;;;;5117655;28;20263;-60
2022/09/21 10:01:38;;;;;;;;;;;16.30;99.90;;;;;;5110203;28;19924;-60
2022/09/21 10:04:13;;;;;;;;;;;16.40;99.90;;;;;;5102946;28;20330;-59
2022/09/21 10:06:40;;;;;;;;;;;16.10;99.90;;;;;;5088663;28;19923;-61
2022/09/21 10:09:27;;;;;;;;;;;16.60;99.90;;;;;;5093105;28;19930;-61
2022/09/21 10:11:57;;;;;;;;;;;16.70;99.90;;;;;;5102920;28;19939;-62
2022/09/21 10:14:26;;;;;;;;;;;16.80;99.90;;;;;;5088626;28;19924;-62
2022/09/21 10:16:55;;;;;;;;;;;17.00;99.90;;;;;;5073464;28;19924;-60
2022/09/21 10:19:24;;;;;;;;;;;17.00;99.90;;;;;;5108403;28;19924;-61
2022/09/21 10:21:58;;;;;;;;;;;17.00;99.90;;;;;;5108687;28;20362;-61
2022/09/21 10:24:29;;;;;;;;;;;17.10;99.90;;;;;;5103048;28;19943;-60
2022/09/21 10:27:16;;;;;;;;;;;17.10;99.90;;;;;;5107697;28;19927;-62
2022/09/21 10:29:45;;;;;;;;;;;17.10;99.90;;;;;;5098606;28;20402;-62
2022/09/21 10:32:12;;;;;;;;;;;17.20;99.90;;;;;;5102586;28;20034;-60
2022/09/21 10:35:00;;;;;;;;;;;17.30;99.90;;;;;;5105809;28;19923;-61
2022/09/21 10:37:29;;;;;;;;;;;17.40;99.90;;;;;;5112801;27;20279;-60
2022/09/21 10:39:56;;;;;;;;;;;17.40;99.90;;;;;;5108341;27;19928;-60
2022/09/21 10:42:24;;;;;;;;;;;17.40;99.90;;;;;;5103243;28;19924;-59
2022/09/21 10:45:02;;;;;;;;;;;17.50;99.90;;;;;;5109061;28;19927;-60
2022/09/21 10:47:29;;;;;;;;;;;17.60;99.90;;;;;;5110899;28;20428;-61
2022/09/21 10:50:00;;;;;;;;;;;17.70;99.90;;;;;;5093277;28;19935;-60
2022/09/21 10:52:33;;;;;;;;;;;17.60;99.90;;;;;;5109724;28;20005;-60
2022/09/21 10:55:00;;;;;;;;;;;17.70;99.90;;;;;;5106127;28;19947;-60
2022/09/21 10:57:28;;;;;;;;;;;17.70;99.90;;;;;;5102934;28;19931;-59
2022/09/21 10:59:56;;;;;;;;;;;17.70;99.90;;;;;;5105728;28;20409;-60
2022/09/21 11:02:25;;;;;;;;;;;17.70;99.90;;;;;;5076790;28;20394;-60
2022/09/21 11:04:55;;;;;;;;;;;17.80;99.90;;;;;;5111977;28;19931;-59
2022/09/21 11:07:35;;;;;;;;;;;17.80;99.90;;;;;;5112737;27;19924;-60
2022/09/21 11:10:12;;;;;;;;;;;17.90;99.90;;;;;;5110328;27;19947;-59
2022/09/21 11:12:44;;;;;;;;;;;17.90;99.90;;;;;;5097049;28;19935;-62
2022/09/21 11:15:14;;;;;;;;;;;18.10;99.90;;;;;;5111700;28;19928;-63
2022/09/21 11:17:48;;;;;;;;;;;18.20;99.90;;;;;;5114854;27;19946;-60
2022/09/21 11:20:19;;;;;;;;;;;18.20;99.90;;;;;;5114279;27;19923;-60
2022/09/21 11:23:03;;;;;;;;;;;18.30;99.90;;;;;;5106742;28;19928;-60
2022/09/21 11:25:49;;;;;;;;;;;18.40;99.90;;;;;;5097924;28;19932;-60
2022/09/21 11:28:21;;;;;;;;;;;18.40;99.90;;;;;;5112310;27;20006;-61
2022/09/21 11:30:56;;;;;;;;;;;18.40;99.90;;;;;;5132025;27;19931;-59
2022/09/21 11:33:26;;;;;;;;;;;18.40;99.90;;;;;;5119950;27;19923;-61
2022/09/21 11:36:12;;;;;;;;;;;18.40;99.90;;;;;;5111538;28;19923;-60
2022/09/21 11:38:42;;;;;;;;;;;18.50;99.90;;;;;;5088249;28;19924;-60
2022/09/21 11:41:10;;;;;;;;;;;18.60;99.90;;;;;;5099177;28;19932;-57
2022/09/21 11:43:40;;;;;;;;;;;18.70;99.90;;;;;;5084151;28;19943;-60
2022/09/21 11:46:18;;;;;;;;;;;18.70;99.90;;;;;;5087165;28;20299;-61
2022/09/21 11:49:03;;;;;;;;;;;18.80;99.90;;;;;;5092978;28;20387;-60
2022/09/21 11:51:39;;;;;;;;;;;18.90;99.90;;;;;;5098587;28;19934;-60
2022/09/21 11:54:34;;;;;;;;;;;18.90;99.90;;;;;;5099308;27;19942;-62
2022/09/21 11:57:08;;;;;;;;;;;19.00;99.90;;;;;;5100627;28;19924;-62
2022/09/21 11:59:45;;;;;;;;;;;19.00;99.90;;;;;;5092563;28;19924;-61
2022/09/21 12:02:18;;;;;;;;;;;19.00;99.90;;;;;;5103610;28;19924;-60
2022/09/21 12:05:06;;;;;;;;;;;19.00;99.90;;;;;;5110134;28;19930;-59
2022/09/21 12:07:48;;;;;;;;;;;19.00;99.90;;;;;;5103048;28;19951;-58
2022/09/21 12:10:23;;;;;;;;;;;19.00;99.90;;;;;;5072460;28;20418;-58
2022/09/21 12:12:59;;;;;;;;;;;19.10;99.90;;;;;;5105555;28;20371;-60
2022/09/21 12:15:33;;;;;;;;;;;19.20;99.90;;;;;;5110792;28;19931;-59
2022/09/21 12:18:20;;;;;;;;;;;19.50;99.90;;;;;;5110086;27;19923;-60
2022/09/21 12:20:54;;;;;;;;;;;19.70;99.90;;;;;;5090225;28;19928;-58
2022/09/21 12:23:25;;;;;;;;;;;19.90;99.90;;;;;;5100581;27;19931;-58
2022/09/21 12:25:56;;;;;;;;;;;20.20;99.90;;;;;;5104957;28;19928;-59
2022/09/21 12:28:26;;;;;;;;;;;20.60;99.90;;;;;;5105601;27;19930;-61
2022/09/21 12:30:57;;;;;;;;;;;20.90;98.50;;;;;;5072248;28;19924;-60
2022/09/21 12:33:33;;;;;;;;;;;21.20;98.70;;;;;;5107157;28;19928;-58
2022/09/21 12:36:09;;;;;;;;;;;21.50;97.70;;;;;;5108563;28;20014;-59
2022/09/21 12:38:43;;;;;;;;;;;21.60;97.50;;;;;;5107879;28;19931;-59
2022/09/21 12:41:16;;;;;;;;;;;21.60;96.70;;;;;;5107820;28;20383;-59
2022/09/21 12:44:00;;;;;;;;;;;21.60;95.70;;;;;;5109020;28;20367;-59
2022/09/21 12:46:30;;;;;;;;;;;21.30;95.90;;;;;;5107925;28;19939;-58
2022/09/21 12:48:59;;;;;;;;;;;21.10;96.20;;;;;;5101381;28;20244;-60
2022/09/21 12:51:31;;;;;;;;;;;21.00;96.30;;;;;;5090173;28;19924;-60
2022/09/21 12:54:00;;;;;;;;;;;20.80;96.40;;;;;;5105464;28;19923;-60
2022/09/21 12:56:44;;;;;;;;;;;20.80;97.20;;;;;;5090905;28;20299;-61
2022/09/21 12:59:29;;;;;;;;;;;20.90;97.00;;;;;;5108488;27;19927;-61
2022/09/21 13:02:10;;;;;;;;;;;21.00;96.40;;;;;;5104480;28;19924;-61
2022/09/21 13:04:49;;;;;;;;;;;21.10;96.00;;;;;;5100350;28;19928;-62
2022/09/21 13:07:22;;;;;;;;;;;21.20;96.30;;;;;;5102955;28;19931;-62
2022/09/21 13:09:50;;;;;;;;;;;21.20;95.60;;;;;;5108286;28;19931;-60
2022/09/21 13:12:26;;;;;;;;;;;21.40;96.40;;;;;;5111030;27;20293;-60
2022/09/21 13:14:58;;;;;;;;;;;21.70;95.80;;;;;;5107923;28;20412;-59
2022/09/21 13:17:28;;;;;;;;;;;22.00;94.80;;;;;;5109367;28;20298;-60
2022/09/21 13:19:58;;;;;;;;;;;22.10;93.70;;;;;;5108818;27;19942;-60
2022/09/21 13:22:29;;;;;;;;;;;22.00;93.80;;;;;;5106663;28;19924;-59
2022/09/21 13:25:00;;;;;;;;;;;22.00;93.30;;;;;;5104123;28;19923;-59
2022/09/21 13:27:46;;;;;;;;;;;21.80;93.10;;;;;;5104237;27;20425;-59
2022/09/21 13:30:42;;;;;;;;;;;21.80;93.30;;;;;;5130080;27;19928;-59
2022/09/21 13:33:28;;;;;;;;;;;22.00;93.30;;;;;;5090139;27;19934;-60
2022/09/21 13:35:58;;;;;;;;;;;22.20;92.20;;;;;;5108616;28;19924;-60
2022/09/21 13:38:27;;;;;;;;;;;22.10;91.90;;;;;;5109049;28;19931;-58
2022/09/21 13:40:59;;;;;;;;;;;22.00;92.00;;;;;;5108515;28;19931;-61
2022/09/21 13:43:46;;;;;;;;;;;21.90;91.80;;;;;;5106027;28;20238;-60
2022/09/21 13:46:33;;;;;;;;;;;21.80;92.30;;;;;;5109303;28;20297;-61
2022/09/21 13:49:09;;;;;;;;;;;21.80;91.60;;;;;;5103300;28;19932;-61
2022/09/21 13:51:50;;;;;;;;;;;21.70;91.50;;;;;;5106683;28;19939;-61
2022/09/21 13:54:20;;;;;;;;;;;21.60;91.70;;;;;;5081401;28;20503;-60
2022/09/21 13:57:03;;;;;;;;;;;21.50;91.90;;;;;;5103579;28;19931;-61
2022/09/21 13:59:37;;;;;;;;;;;21.40;91.90;;;;;;5122507;28;20303;-62
2022/09/21 14:02:18;;;;;;;;;;;21.40;92.00;;;;;;5115287;28;19924;-61
2022/09/21 14:04:47;;;;;;;;;;;21.30;91.90;;;;;;5101954;28;20393;-60
2022/09/21 14:07:16;;;;;;;;;;;21.30;92.20;;;;;;5106519;28;19924;-61
2022/09/21 14:09:58;;;;;;;;;;;21.40;91.90;;;;;;5117690;27;19924;-60
2022/09/21 14:12:27;;;;;;;;;;;21.40;91.90;;;;;;5109263;28;19924;-60
2022/09/21 14:15:15;;;;;;;;;;;21.40;91.30;;;;;;5092968;28;20283;-60
2022/09/21 14:17:42;;;;;;;;;;;21.40;90.80;;;;;;5094636;28;19930;-60
2022/09/21 14:20:29;;;;;;;;;;;21.40;90.40;;;;;;5112291;28;19931;-60
2022/09/21 14:23:10;;;;;;;;;;;21.40;90.70;;;;;;5110114;28;20397;-60
2022/09/21 14:25:51;;;;;;;;;;;21.40;89.30;;;;;;5093260;28;20299;-59
2022/09/21 14:28:26;;;;;;;;;;;21.40;89.20;;;;;;5120144;27;19927;-59
2022/09/21 14:30:56;;;;;;;;;;;21.40;88.00;;;;;;5098548;28;19923;-60
2022/09/21 14:33:45;;;;;;;;;;;21.30;88.50;;;;;;5105410;28;19928;-59
2022/09/21 14:36:15;;;;;;;;;;;21.20;89.70;;;;;;5091768;28;19924;-59
2022/09/21 14:38:51;;;;;;;;;;;21.00;90.00;;;;;;5105893;28;20264;-60
2022/09/21 14:41:22;;;;;;;;;;;20.90;90.00;;;;;;5110839;28;19924;-60
2022/09/21 14:43:52;;;;;;;;;;;20.70;90.40;;;;;;5092435;28;19924;-59
2022/09/21 14:46:26;;;;;;;;;;;20.60;90.60;;;;;;5093326;28;19923;-58
2022/09/21 14:49:03;;;;;;;;;;;20.60;90.90;;;;;;5099166;28;19946;-59
2022/09/21 14:51:35;;;;;;;;;;;20.50;90.60;;;;;;5091186;28;19928;-58